createdAt,value
2023-01-19T00:01:35.838Z,99890.50
2023-01-19T00:04:07.588Z,99891.47
2023-01-19T00:06:37.450Z,99884.72
2023-01-19T00:09:10.092Z,99881.47
2023-01-19T00:11:38.334Z,99870.41
2023-01-19T00:14:07.577Z,99880.84
2023-01-19T00:16:37.615Z,99878.41
2023-01-19T00:19:10.650Z,99881.16
2023-01-19T00:21:49.586Z,99882.13
2023-01-19T00:24:19.661Z,99882.19
2023-01-19T00:26:49.207Z,99892.53
2023-01-19T00:29:18.262Z,99887.44
2023-01-19T00:31:46.614Z,99891.84
2023-01-19T00:34:23.643Z,99890.13
2023-01-19T00:37:03.936Z,99887.66
2023-01-19T00:39:31.767Z,99895.44
2023-01-19T00:42:17.958Z,99892.00
2023-01-19T00:47:28.297Z,99898.13
2023-01-19T00:50:01.115Z,99880.94
2023-01-19T00:52:29.280Z,99890.41
2023-01-19T00:54:57.986Z,99885.25
2023-01-19T00:57:38.827Z,99885.28
2023-01-19T01:00:19.748Z,99883.56
2023-01-19T01:02:53.447Z,99877.59
2023-01-19T01:05:25.414Z,99885.31
2023-01-19T01:08:04.700Z,99883.63
2023-01-19T01:10:32.879Z,99893.88
2023-01-19T01:13:20.355Z,99886.19
2023-01-19T01:15:57.951Z,99881.03
2023-01-19T01:18:32.975Z,99898.19
2023-01-19T01:21:09.355Z,99895.59
2023-01-19T01:23:51.640Z,99910.94
2023-01-19T01:26:26.366Z,99921.16
2023-01-19T01:28:57.577Z,99910.81
2023-01-19T01:31:28.198Z,99912.50
2023-01-19T01:33:57.353Z,99897.09
2023-01-19T01:36:28.235Z,99903.97
2023-01-19T01:38:55.939Z,99903.13
2023-01-19T01:41:27.442Z,99903.13
2023-01-19T01:44:01.887Z,99896.28
2023-01-19T01:46:33.059Z,99897.97
2023-01-19T01:49:15.643Z,99894.56
2023-01-19T01:51:57.482Z,99897.13
2023-01-19T01:54:33.409Z,99903.16
2023-01-19T01:57:15.713Z,99900.63
2023-01-19T01:59:52.388Z,99901.63
2023-01-19T02:02:46.411Z,99901.97
2023-01-19T02:05:37.782Z,99896.19
2023-01-19T02:08:37.628Z,99902.25
2023-01-19T02:11:25.049Z,99899.72
2023-01-19T02:13:53.650Z,99903.22
2023-01-19T02:16:23.246Z,99917.09
2023-01-19T02:18:51.494Z,99912.06
2023-01-19T02:21:49.092Z,99909.50
2023-01-19T02:24:17.545Z,99898.41
2023-01-19T02:26:48.321Z,99894.28
2023-01-19T02:29:20.098Z,99910.84
2023-01-19T02:31:49.148Z,99907.59
2023-01-19T02:34:20.981Z,99911.16
2023-01-19T02:37:16.984Z,99921.47
2023-01-19T02:39:58.506Z,99918.88
2023-01-19T02:42:36.303Z,99917.22
2023-01-19T02:45:06.793Z,99916.47
2023-01-19T02:47:49.329Z,99926.91
2023-01-19T02:50:36.746Z,99926.97
2023-01-19T02:53:38.112Z,99922.75
2023-01-19T02:56:43.861Z,99924.44
2023-01-19T02:59:55.767Z,99924.44
2023-01-19T03:03:18.657Z,99929.63
2023-01-19T03:06:13.928Z,99930.44
2023-01-19T03:09:17.938Z,99943.25
2023-01-19T03:12:16.602Z,99940.63
2023-01-19T03:14:48.189Z,99940.59
2023-01-19T03:17:19.076Z,99944.06
2023-01-19T03:19:51.324Z,99948.34
2023-01-19T03:22:31.035Z,99951.91
2023-01-19T03:25:03.838Z,99964.81
2023-01-19T03:27:40.967Z,99965.81
2023-01-19T03:30:15.784Z,99971.94
2023-01-19T03:33:36.634Z,99978.94
2023-01-19T03:36:14.031Z,99980.75
2023-01-19T03:38:45.318Z,99985.94
2023-01-19T03:41:20.219Z,99986.06
2023-01-19T03:43:52.194Z,99991.28
2023-01-19T03:46:20.567Z,99994.78
2023-01-19T03:48:49.878Z,99998.25
2023-01-19T03:51:20.219Z,99991.53
2023-01-19T03:53:52.045Z,99990.59
2023-01-19T03:56:25.554Z,99995.75
2023-01-19T03:58:56.166Z,99995.81
2023-01-19T04:01:26.253Z,100003.53
2023-01-19T04:03:54.266Z,100013.00
2023-01-19T04:06:22.463Z,100006.97
2023-01-19T04:08:51.401Z,100014.72
2023-01-19T04:11:19.420Z,100016.41
2023-01-19T04:13:47.119Z,100007.91
2023-01-19T04:16:20.161Z,100024.19
2023-01-19T04:18:51.094Z,100010.50
2023-01-19T04:21:20.355Z,100004.50
2023-01-19T04:23:52.386Z,100005.34
2023-01-19T04:26:21.042Z,100007.94
2023-01-19T04:28:48.643Z,100023.38
2023-01-19T04:31:21.306Z,100029.38
2023-01-19T04:33:50.490Z,100033.66
2023-01-19T04:36:24.968Z,100043.94
2023-01-19T04:38:52.738Z,100037.09
2023-01-19T04:41:21.385Z,100025.94
2023-01-19T04:43:49.173Z,100013.13
2023-01-19T04:46:17.118Z,99995.13
2023-01-19T04:48:46.292Z,99997.66
2023-01-19T04:51:15.865Z,99985.63
2023-01-19T04:53:43.954Z,99986.50
2023-01-19T04:56:12.436Z,99981.31
2023-01-19T04:58:41.310Z,99972.75
2023-01-19T05:01:17.433Z,99973.53
2023-01-19T05:03:45.204Z,99973.53
2023-01-19T05:06:13.337Z,99970.03
2023-01-19T05:08:41.140Z,99973.47
2023-01-19T05:11:09.371Z,99970.00
2023-01-19T05:13:38.077Z,99990.56
2023-01-19T05:16:06.767Z,99991.38
2023-01-19T05:18:37.204Z,99994.00
2023-01-19T05:21:05.352Z,99985.38
2023-01-19T05:23:34.486Z,99987.91
2023-01-19T05:26:03.031Z,99997.31
2023-01-19T05:28:33.102Z,99987.03
2023-01-19T05:31:00.977Z,99997.28
2023-01-19T05:33:28.660Z,99997.28
2023-01-19T05:35:56.649Z,100017.84
2023-01-19T05:38:34.685Z,100011.00
2023-01-19T05:41:05.434Z,100028.16
2023-01-19T05:43:33.081Z,100033.31
2023-01-19T05:46:00.756Z,100029.84
2023-01-19T05:48:29.663Z,100021.28
2023-01-19T05:51:01.425Z,100032.47
2023-01-19T05:53:29.614Z,100040.16
2023-01-19T05:56:06.137Z,100039.25
2023-01-19T05:58:40.587Z,100039.28
2023-01-19T06:01:15.793Z,100041.84
2023-01-19T06:03:48.715Z,100053.00
2023-01-19T06:06:17.572Z,100058.13
2023-01-19T06:08:53.791Z,100062.38
2023-01-19T06:11:22.232Z,100054.66
2023-01-19T06:13:51.696Z,100054.63
2023-01-19T06:16:20.867Z,100052.06
2023-01-19T06:18:48.385Z,100051.16
2023-01-19T06:21:17.244Z,100055.47
2023-01-19T06:23:44.796Z,100059.66
2023-01-19T06:26:12.670Z,100064.78
2023-01-19T06:28:40.329Z,100068.22
2023-01-19T06:31:07.934Z,100075.03
2023-01-19T06:33:36.767Z,100079.31
2023-01-19T06:36:04.570Z,100083.56
2023-01-19T06:38:33.006Z,100087.78
2023-01-19T06:41:04.865Z,100098.06
2023-01-19T06:43:32.512Z,100095.47
2023-01-19T06:46:02.350Z,100095.50
2023-01-19T06:48:30.051Z,100099.78
2023-01-19T06:50:59.826Z,100105.72
2023-01-19T06:53:30.202Z,100100.59
2023-01-19T06:56:04.971Z,100110.03
2023-01-19T06:58:35.512Z,100108.31
2023-01-19T07:01:06.221Z,100115.19
2023-01-19T07:03:38.526Z,100122.03
2023-01-19T07:06:09.536Z,100121.13
2023-01-19T07:08:37.879Z,100128.84
2023-01-19T07:11:25.246Z,100133.97
2023-01-19T07:13:56.581Z,100133.06
2023-01-19T07:16:24.345Z,100135.66
2023-01-19T07:18:52.500Z,100142.50
2023-01-19T07:21:21.350Z,100145.03
2023-01-19T07:23:51.440Z,100151.84
2023-01-19T07:26:21.456Z,100150.97
2023-01-19T07:28:49.834Z,100152.69
2023-01-19T07:31:19.585Z,100166.38
2023-01-19T07:33:50.390Z,100157.81
2023-01-19T07:36:20.424Z,100165.53
2023-01-19T07:38:49.864Z,100163.78
2023-01-19T07:41:18.654Z,100159.44
2023-01-19T07:43:51.318Z,100163.72
2023-01-19T07:46:19.235Z,100170.53
2023-01-19T07:48:55.209Z,100168.69
2023-01-19T07:51:23.587Z,100172.91
2023-01-19T07:53:54.393Z,100178.03
2023-01-19T07:56:32.736Z,100189.06
2023-01-19T07:59:04.426Z,100189.00
2023-01-19T08:01:32.092Z,100191.53
2023-01-19T08:03:59.901Z,100198.31
2023-01-19T08:06:37.936Z,100206.88
2023-01-19T08:09:07.063Z,100202.59
2023-01-19T08:11:34.699Z,100207.72
2023-01-19T08:14:03.362Z,100206.91
2023-01-19T08:16:32.987Z,100215.41
2023-01-19T08:19:03.344Z,100223.13
2023-01-19T08:21:33.297Z,100223.13
2023-01-19T08:24:20.871Z,100235.16
2023-01-19T08:26:49.704Z,100238.56
2023-01-19T08:29:17.408Z,100235.16
2023-01-19T08:31:45.607Z,100250.63
2023-01-19T08:34:13.663Z,100250.63
2023-01-19T08:36:41.712Z,100248.00
2023-01-19T08:39:14.808Z,100247.03
2023-01-19T08:41:42.892Z,100263.22
2023-01-19T08:44:10.565Z,100263.94
2023-01-19T08:46:46.767Z,100275.84
2023-01-19T08:49:14.725Z,100283.44
2023-01-19T08:51:46.932Z,100274.75
2023-01-19T08:54:18.576Z,100266.09
2023-01-19T08:56:46.438Z,100279.81
2023-01-19T08:59:14.290Z,100284.94
2023-01-19T09:01:42.423Z,100287.56
2023-01-19T09:04:10.135Z,100287.56
2023-01-19T09:06:37.749Z,100293.59
2023-01-19T09:09:05.741Z,100291.94
2023-01-19T09:11:35.000Z,100297.97
2023-01-19T09:14:05.696Z,100297.13
2023-01-19T09:16:36.617Z,100299.72
2023-01-19T09:19:08.594Z,100296.38
2023-01-19T09:21:39.508Z,100309.31
2023-01-19T09:24:09.044Z,100316.22
2023-01-19T09:26:40.632Z,100307.69
2023-01-19T09:29:09.474Z,100319.63
2023-01-19T09:31:38.770Z,100305.72
2023-01-19T09:34:06.766Z,100306.47
2023-01-19T09:36:40.570Z,100316.72
2023-01-19T09:39:11.059Z,100318.44
2023-01-19T09:41:47.737Z,100318.44
2023-01-19T09:44:32.328Z,100327.09
2023-01-19T09:47:16.981Z,100333.13
2023-01-19T09:49:53.819Z,100335.69
2023-01-19T09:52:22.397Z,100328.81
2023-01-19T09:54:58.517Z,100332.28
2023-01-19T09:57:30.642Z,100349.31
2023-01-19T09:59:59.715Z,100352.69
2023-01-19T10:02:46.924Z,100341.44
2023-01-19T10:05:56.676Z,100350.78
2023-01-19T10:09:09.776Z,100352.44
2023-01-19T10:12:10.361Z,100361.91
2023-01-19T10:15:17.692Z,100361.72
2023-01-19T10:18:03.063Z,100361.53
2023-01-19T10:20:40.862Z,100364.09
2023-01-19T10:23:36.773Z,100360.53
2023-01-19T10:26:28.882Z,100360.53
2023-01-19T10:29:07.401Z,100366.50
2023-01-19T10:31:38.321Z,100366.22
2023-01-19T10:34:18.872Z,100364.84
2023-01-19T10:36:53.656Z,100370.63
2023-01-19T10:39:21.426Z,100370.63
2023-01-19T10:41:53.851Z,100362.50
2023-01-19T10:44:36.674Z,100363.16
2023-01-19T10:47:17.397Z,100366.72
2023-01-19T10:49:50.227Z,100365.28
2023-01-19T10:52:29.070Z,100368.16
2023-01-19T10:55:01.114Z,100369.97
2023-01-19T10:57:39.551Z,100366.41
2023-01-19T11:00:41.145Z,100379.88
2023-01-19T11:03:31.389Z,100365.25
2023-01-19T11:06:40.844Z,100361.91
2023-01-19T11:09:25.360Z,100367.94
2023-01-19T11:15:02.872Z,100372.97
2023-01-19T11:17:36.280Z,100373.78
2023-01-19T11:23:05.689Z,100375.75
2023-01-19T11:32:12.649Z,100366.75
2023-01-19T11:37:41.784Z,100367.56
2023-01-19T11:40:31.455Z,100360.06
2023-01-19T11:43:13.946Z,100365.28
2023-01-19T11:45:53.411Z,100362.53
2023-01-19T11:48:39.141Z,100369.38
2023-01-19T11:52:03.224Z,100363.59
2023-01-19T11:55:20.857Z,100366.25
2023-01-19T11:58:04.123Z,100367.13
2023-01-19T12:01:08.429Z,100358.84
2023-01-19T12:04:00.971Z,100354.28
2023-01-19T12:06:59.640Z,100363.84
2023-01-19T12:09:49.799Z,100362.38
2023-01-19T12:12:37.271Z,100358.34
2023-01-19T12:15:50.568Z,100361.50
2023-01-19T12:18:53.082Z,100356.50
2023-01-19T12:21:24.917Z,100362.34
2023-01-19T12:24:33.513Z,100363.69
2023-01-19T12:27:56.203Z,100365.75
2023-01-19T12:30:28.453Z,100366.94
2023-01-19T12:33:29.160Z,100371.53
2023-01-19T12:36:15.309Z,100364.19
2023-01-19T12:39:04.812Z,100359.47
2023-01-19T12:41:39.929Z,100364.28
2023-01-19T12:44:19.529Z,100367.41
2023-01-19T12:47:07.786Z,100359.59
2023-01-19T12:50:16.884Z,100364.03
2023-01-19T12:53:26.636Z,100368.88
2023-01-19T12:56:09.673Z,100366.19
2023-01-19T12:58:47.611Z,100362.50
2023-01-19T13:01:45.754Z,100370.69
2023-01-19T13:07:28.298Z,100370.78
2023-01-19T13:10:01.300Z,100362.22
2023-01-19T13:12:36.163Z,100364.16
2023-01-19T13:15:37.473Z,100366.81
2023-01-19T13:18:10.134Z,100369.97
2023-01-19T13:21:01.592Z,100363.13
2023-01-19T13:24:15.168Z,100360.00
2023-01-19T13:27:07.745Z,100361.97
2023-01-19T13:29:41.689Z,100361.50
2023-01-19T13:32:18.784Z,100376.94
2023-01-19T13:35:02.054Z,100373.44
2023-01-19T13:37:44.720Z,100369.41
2023-01-19T13:40:34.249Z,100368.28
2023-01-19T13:43:03.698Z,100369.88
2023-01-19T13:45:41.041Z,100364.28
2023-01-19T13:48:31.690Z,100374.50
2023-01-19T13:51:26.481Z,100372.72
2023-01-19T13:54:09.822Z,100377.09
2023-01-19T13:56:40.798Z,100372.34
2023-01-19T13:59:14.031Z,100369.25
2023-01-19T14:04:36.438Z,100378.09
2023-01-19T14:07:26.654Z,100388.22
2023-01-19T14:10:14.444Z,100379.75
2023-01-19T14:15:44.760Z,100390.09
2023-01-19T14:18:38.214Z,100402.00
2023-01-19T14:21:25.014Z,100393.09
2023-01-19T14:23:57.976Z,100393.06
2023-01-19T14:27:02.717Z,100399.63
2023-01-19T14:29:35.457Z,100396.13
2023-01-19T14:32:25.835Z,100402.81
2023-01-19T14:35:04.780Z,100398.56
2023-01-19T14:37:49.842Z,100402.41
2023-01-19T14:40:40.985Z,100410.75
2023-01-19T14:43:30.870Z,100408.31
2023-01-19T14:46:40.443Z,100408.09
2023-01-19T14:49:40.392Z,100402.69
2023-01-19T14:52:30.701Z,100418.25
2023-01-19T14:54:59.867Z,100418.69
2023-01-19T14:57:29.776Z,100423.88
2023-01-19T15:00:02.557Z,100431.50
2023-01-19T15:02:42.226Z,100440.75
2023-01-19T15:05:14.054Z,100438.63
2023-01-19T15:07:50.673Z,100437.50
2023-01-19T15:10:38.705Z,100445.09
2023-01-19T15:13:08.030Z,100443.81
2023-01-19T15:15:43.909Z,100441.66
2023-01-19T15:18:20.639Z,100457.59
2023-01-19T15:20:49.734Z,100451.09
2023-01-19T15:23:29.152Z,100459.97
2023-01-19T15:26:13.973Z,100457.00
2023-01-19T15:28:52.368Z,100475.28
2023-01-19T15:34:29.972Z,100466.38
2023-01-19T15:37:01.095Z,100472.59
2023-01-19T15:42:29.909Z,100474.03
2023-01-19T15:45:02.660Z,100466.53
2023-01-19T15:47:35.744Z,100467.47
2023-01-19T15:50:09.590Z,100468.50
2023-01-19T15:52:40.939Z,100479.81
2023-01-19T15:55:17.005Z,100478.97
2023-01-19T15:57:53.052Z,100466.94
2023-01-19T16:00:25.562Z,100465.41
2023-01-19T16:03:05.792Z,100460.47
2023-01-19T16:05:43.194Z,100481.25
2023-01-19T16:08:15.065Z,100480.59
2023-01-19T16:10:48.223Z,100483.34
2023-01-19T16:13:32.483Z,100480.94
2023-01-19T16:16:39.939Z,100489.69
2023-01-19T16:19:14.585Z,100492.41
2023-01-19T16:21:53.273Z,100481.41
2023-01-19T16:24:46.357Z,100495.28
2023-01-19T16:27:30.752Z,100496.28
2023-01-19T16:30:13.239Z,100494.63
2023-01-19T16:32:53.289Z,100505.03
2023-01-19T16:35:23.484Z,100507.75
2023-01-19T16:40:47.830Z,100501.91
2023-01-19T16:46:19.789Z,100507.25
2023-01-19T16:49:07.265Z,100512.47
2023-01-19T16:51:48.496Z,100515.13
2023-01-19T16:54:30.423Z,100516.06
2023-01-19T16:56:59.842Z,100515.34
2023-01-19T16:59:31.360Z,100517.16
2023-01-19T17:02:24.160Z,100527.56
2023-01-19T17:05:03.160Z,100533.59
2023-01-19T17:07:36.117Z,100537.09
2023-01-19T17:12:51.643Z,100532.13
2023-01-19T17:15:42.934Z,100541.63
2023-01-19T17:18:15.038Z,100541.72
2023-01-19T17:20:48.362Z,100541.81
2023-01-19T17:23:33.830Z,100542.72
2023-01-19T17:26:16.051Z,100546.25
2023-01-19T17:31:37.233Z,100554.91
2023-01-19T17:37:05.234Z,100553.28
2023-01-19T17:42:43.144Z,100549.94
2023-01-19T17:45:39.295Z,100556.84
2023-01-19T17:57:19.893Z,100556.13
2023-01-19T18:02:48.980Z,100566.50
2023-01-19T18:08:35.952Z,100555.41
2023-01-19T18:11:08.276Z,100560.63
2023-01-19T18:13:48.444Z,100567.53
2023-01-19T18:22:23.527Z,100578.84
2023-01-19T18:25:05.719Z,100572.88
2023-01-19T18:33:29.030Z,100578.16
2023-01-19T18:36:17.942Z,100573.84
2023-01-19T18:38:55.791Z,100578.19
2023-01-19T18:44:36.439Z,100572.22
2023-01-19T18:47:37.484Z,100568.78
2023-01-19T18:50:07.268Z,100576.53
2023-01-19T18:52:48.859Z,100585.97
2023-01-19T18:55:38.792Z,100583.44
2023-01-19T18:58:21.832Z,100583.44
2023-01-19T19:01:00.052Z,100580.84
2023-01-19T19:03:37.051Z,100595.44
2023-01-19T19:09:20.423Z,100584.28
2023-01-19T19:11:58.477Z,100589.47
2023-01-19T19:17:27.554Z,100586.06
2023-01-19T19:19:55.788Z,100591.22
2023-01-19T19:25:14.607Z,100590.41
2023-01-19T19:31:27.052Z,100602.41
2023-01-19T19:36:51.811Z,100612.75
2023-01-19T19:39:22.017Z,100611.06
2023-01-19T19:44:39.397Z,100617.06
2023-01-19T19:54:11.483Z,100623.97
2023-01-19T19:56:44.910Z,100630.84
2023-01-19T19:59:22.104Z,100630.84
2023-01-19T20:01:58.727Z,100627.44
2023-01-19T20:04:33.728Z,100630.84
2023-01-19T20:10:06.793Z,100641.19
2023-01-19T20:12:48.636Z,100639.50
2023-01-19T20:18:13.380Z,100651.53
2023-01-19T20:23:52.599Z,100654.16
2023-01-19T20:29:33.883Z,100660.22
2023-01-19T20:34:50.568Z,100665.38
2023-01-19T20:37:29.498Z,100667.97
2023-01-19T20:40:16.881Z,100677.38
2023-01-19T20:42:57.671Z,100678.25
2023-01-19T20:48:13.342Z,100693.66
2023-01-19T20:53:43.892Z,100716.69
2023-01-19T20:56:20.162Z,100730.31
2023-01-19T20:59:03.028Z,100728.53
2023-01-19T21:01:42.380Z,100742.22
2023-01-19T21:04:14.046Z,100734.44
2023-01-19T21:06:46.737Z,100734.41
2023-01-19T21:09:42.215Z,100739.50
2023-01-19T21:12:14.402Z,100744.66
2023-01-19T21:14:53.050Z,100741.19
2023-01-19T21:17:23.445Z,100748.06
2023-01-19T21:22:51.678Z,100757.47
2023-01-19T21:25:29.483Z,100748.06
2023-01-19T21:30:54.020Z,100758.38
2023-01-19T21:33:34.420Z,100760.06
2023-01-19T21:36:04.555Z,100767.75
2023-01-19T21:38:50.780Z,100775.47
2023-01-19T21:41:32.513Z,100771.19
2023-01-19T21:44:04.605Z,100768.63
2023-01-19T21:46:40.849Z,100778.06
2023-01-19T21:49:19.884Z,100773.78
2023-01-19T21:51:52.732Z,100784.09
2023-01-19T21:54:24.020Z,100778.06
2023-01-19T21:56:56.937Z,100779.78
2023-01-19T21:59:33.400Z,100785.78
2023-01-19T22:02:01.405Z,100786.66
2023-01-19T22:05:10.650Z,100785.75
2023-01-19T22:07:53.313Z,100790.91
2023-01-19T22:10:22.999Z,100800.34
2023-01-19T22:13:05.650Z,100793.47
2023-01-19T22:15:43.636Z,100804.63
2023-01-19T22:18:16.197Z,100802.03
2023-01-19T22:20:46.743Z,100810.59
2023-01-19T22:23:16.480Z,100808.88
2023-01-19T22:26:05.232Z,100812.34
2023-01-19T22:28:33.572Z,100807.22
2023-01-19T22:31:11.292Z,100811.47
2023-01-19T22:33:46.608Z,100808.06
2023-01-19T22:36:34.454Z,100814.06
2023-01-19T22:39:19.207Z,100809.75
2023-01-19T22:41:53.805Z,100814.91
2023-01-19T22:44:24.523Z,100808.88
2023-01-19T22:46:58.373Z,100810.59
2023-01-19T22:49:28.871Z,100812.31
2023-01-19T22:51:57.835Z,100809.72
2023-01-19T22:54:39.691Z,100813.13
2023-01-19T22:57:14.805Z,100818.31
2023-01-19T22:59:46.399Z,100811.47
2023-01-19T23:02:15.048Z,100815.75
2023-01-19T23:04:46.225Z,100814.91
2023-01-19T23:10:11.259Z,100809.81
2023-01-19T23:12:41.378Z,100807.25
2023-01-19T23:15:09.981Z,100802.94
2023-01-19T23:17:38.046Z,100806.38
2023-01-19T23:20:07.627Z,100808.06
2023-01-19T23:22:37.071Z,100806.38
2023-01-19T23:25:06.348Z,100812.41
2023-01-19T23:27:38.655Z,100822.72
2023-01-19T23:30:09.293Z,100821.81
2023-01-19T23:32:38.761Z,100818.38
2023-01-19T23:35:12.008Z,100822.69
2023-01-19T23:37:42.772Z,100820.06
2023-01-19T23:40:17.072Z,100816.59
2023-01-19T23:42:46.567Z,100816.59
2023-01-19T23:45:23.426Z,100823.47
2023-01-19T23:47:53.191Z,100822.59
2023-01-19T23:50:33.293Z,100833.78
2023-01-19T23:53:05.160Z,100827.78
2023-01-19T23:55:38.687Z,100838.09
2023-01-19T23:58:08.471Z,100841.53
